EZY35X LDSP-EGPH
Flight info
| Callsign | EZY35X |
|---|---|
| Flight time | N/A |
| Altitude | 36000 |
| Route | ZDA DCT BARPI DCT SOTOV P66 KPT L608 TEDGO DCT ADENU/N0442F380 L608 TERLA N852 VELED DCT MIMVA L602 EMLON M79 TENDO DCT AGPED |
| Aircraft | A320/M-SDE3FGHIRWY/LB1 |
Departure
| Time | 2026-05-06 10:14 |
|---|---|
| Airport | Split Saint Jerome Airport (LDSP) |
Arrival
| Time | N/A |
|---|---|
| Airport | Edinburgh Airport (EGPH) |
| Time | Latitude | Longitude | Altitude | Speed | Heading |
|---|---|---|---|---|---|
| 2026-05-06 09:40 | 43.53693 | 16.29815 | 59 ft | 0 kts | 115° |
| 2026-05-06 10:09 | 43.53694 | 16.29821 | 68 ft | 1 kts | 82° |
| 2026-05-06 10:09 | 43.53710 | 16.29824 | 63 ft | 4 kts | 343° |
| 2026-05-06 10:09 | 43.53722 | 16.29792 | 66 ft | 3 kts | 291° |
| 2026-05-06 10:10 | 43.53726 | 16.29767 | 66 ft | 4 kts | 278° |
| 2026-05-06 10:10 | 43.53709 | 16.29701 | 62 ft | 11 kts | 234° |
| 2026-05-06 10:10 | 43.53671 | 16.29621 | 66 ft | 9 kts | 253° |
| 2026-05-06 10:10 | 43.53684 | 16.29577 | 70 ft | 0 kts | 304° |
| 2026-05-06 10:11 | 43.53696 | 16.29544 | 71 ft | 8 kts | 289° |
| 2026-05-06 10:11 | 43.53681 | 16.29415 | 82 ft | 20 kts | 245° |
| 2026-05-06 10:11 | 43.53609 | 16.29272 | 83 ft | 17 kts | 233° |
| 2026-05-06 10:11 | 43.53536 | 16.29141 | 82 ft | 17 kts | 232° |
| 2026-05-06 10:12 | 43.53472 | 16.29026 | 83 ft | 14 kts | 232° |
| 2026-05-06 10:12 | 43.53408 | 16.28912 | 82 ft | 17 kts | 232° |
| 2026-05-06 10:12 | 43.53329 | 16.28767 | 84 ft | 21 kts | 233° |
| 2026-05-06 10:12 | 43.53243 | 16.28628 | 70 ft | 13 kts | 201° |
| 2026-05-06 10:13 | 43.53211 | 16.28599 | 73 ft | 3 kts | 283° |
| 2026-05-06 10:13 | 43.53226 | 16.28595 | 77 ft | 3 kts | 19° |
| 2026-05-06 10:13 | 43.53301 | 16.28726 | 83 ft | 47 kts | 53° |
| 2026-05-06 10:13 | 43.53643 | 16.29344 | 84 ft | 112 kts | 53° |
| 2026-05-06 10:14 | 43.54216 | 16.30410 | 116 ft | 158 kts | 58° |
| 2026-05-06 10:14 | 43.54862 | 16.31629 | 857 ft | 159 kts | 64° |
| 2026-05-06 10:14 | 43.55141 | 16.33041 | 1602 ft | 155 kts | 102° |
| 2026-05-06 10:14 | 43.54631 | 16.34262 | 2328 ft | 149 kts | 144° |
| 2026-05-06 10:15 | 43.53771 | 16.35026 | 2986 ft | 147 kts | 147° |
| 2026-05-06 10:15 | 43.52882 | 16.35832 | 3394 ft | 162 kts | 146° |
| 2026-05-06 10:15 | 43.51915 | 16.36732 | 3844 ft | 172 kts | 146° |
| 2026-05-06 10:15 | 43.50914 | 16.37635 | 4527 ft | 173 kts | 148° |
| 2026-05-06 10:16 | 43.49909 | 16.38510 | 5243 ft | 170 kts | 150° |
| 2026-05-06 10:16 | 43.48769 | 16.39088 | 5542 ft | 188 kts | 176° |
| 2026-05-06 10:16 | 43.47433 | 16.38603 | 5773 ft | 222 kts | 208° |
| 2026-05-06 10:16 | 43.46193 | 16.37081 | 6088 ft | 251 kts | 219° |
| 2026-05-06 10:17 | 43.44915 | 16.35348 | 6762 ft | 262 kts | 222° |
| 2026-05-06 10:17 | 43.43621 | 16.33575 | 7752 ft | 264 kts | 223° |
| 2026-05-06 10:17 | 43.42300 | 16.31769 | 8635 ft | 271 kts | 223° |
| 2026-05-06 10:17 | 43.41203 | 16.29699 | 9803 ft | 269 kts | 242° |
| 2026-05-06 10:18 | 43.40729 | 16.27202 | 10749 ft | 275 kts | 265° |
| 2026-05-06 10:18 | 43.41055 | 16.24544 | 11440 ft | 297 kts | 291° |
| 2026-05-06 10:18 | 43.42331 | 16.22305 | 12309 ft | 309 kts | 313° |
| 2026-05-06 10:18 | 43.43942 | 16.20327 | 13292 ft | 311 kts | 314° |
| 2026-05-06 10:19 | 43.45564 | 16.18324 | 14219 ft | 315 kts | 313° |
| 2026-05-06 10:19 | 43.47248 | 16.16216 | 14586 ft | 339 kts | 314° |
| 2026-05-06 10:19 | 43.49033 | 16.13962 | 15065 ft | 355 kts | 313° |
| 2026-05-06 10:19 | 43.50871 | 16.11642 | 15830 ft | 361 kts | 311° |
| 2026-05-06 10:20 | 43.52726 | 16.09292 | 16456 ft | 364 kts | 314° |
| 2026-05-06 10:20 | 43.54602 | 16.06920 | 17065 ft | 368 kts | 314° |
| 2026-05-06 10:20 | 43.56467 | 16.04559 | 17647 ft | 371 kts | 314° |
| 2026-05-06 10:20 | 43.58379 | 16.02136 | 18240 ft | 375 kts | 314° |
| 2026-05-06 10:21 | 43.60303 | 15.99695 | 18764 ft | 377 kts | 312° |
| 2026-05-06 10:21 | 43.62237 | 15.97239 | 19347 ft | 378 kts | 313° |
| 2026-05-06 10:21 | 43.64170 | 15.94779 | 19914 ft | 379 kts | 313° |
| 2026-05-06 10:21 | 43.66112 | 15.92303 | 20447 ft | 381 kts | 314° |
| 2026-05-06 10:22 | 43.68065 | 15.89815 | 20977 ft | 383 kts | 313° |
| 2026-05-06 10:22 | 43.70024 | 15.87317 | 21515 ft | 384 kts | 313° |
| 2026-05-06 10:22 | 43.71962 | 15.84842 | 22033 ft | 385 kts | 313° |
| 2026-05-06 10:22 | 43.73937 | 15.82323 | 22544 ft | 388 kts | 313° |
| 2026-05-06 10:23 | 43.75924 | 15.79788 | 23071 ft | 389 kts | 313° |
| 2026-05-06 10:23 | 43.77911 | 15.77250 | 23616 ft | 389 kts | 313° |
| 2026-05-06 10:23 | 43.79905 | 15.74697 | 24024 ft | 391 kts | 313° |
| 2026-05-06 10:23 | 43.81906 | 15.72131 | 24423 ft | 393 kts | 313° |
| 2026-05-06 10:24 | 43.83918 | 15.69545 | 24810 ft | 396 kts | 313° |
| 2026-05-06 10:24 | 43.85939 | 15.66941 | 25192 ft | 398 kts | 313° |